Flight Track Log - Related Links

Times and Time Zones

All times are in EDT time to prevent confusion due to time zone crossing. See the N1926A flight status page for this flight to view local times or setup timezone preferences in your user account.

Time Position Orientation Groundspeed Altitude Reporting Facility
EDT Latitude Longitude Course Direction KTS MPH feet Rate Location/Type
Tue 04:51:56 PM 37.6736 -85.9911 263° West 153 176 3,600  Level Indianapolis Center
Tue 04:52:58 PM 37.6686 -86.0444 263° West 153 176 6,100 2,323 Climbing Indianapolis Center
Tue 04:54:00 PM 37.6286 -86.0472 183° South 151 174 8,400 1,935 Climbing Indianapolis Center
Tue 04:55:02 PM 37.5825 -86.0431 176° South 165 190 10,100 1,854 Climbing Indianapolis Center
Tue 04:56:03 PM 37.5217 -86.0400 178° South 193 222 12,200 1,951 Climbing Indianapolis Center
Tue 04:57:05 PM 37.4683 -86.0372 178° South 192 221 14,100 1,984 Climbing Indianapolis Center
Tue 04:58:07 PM 37.4203 -86.0328 176° South 175 201 16,300 1,403 Climbing Indianapolis Center
Tue 04:59:09 PM 37.3658 -86.0306 178° South 192 221 17,000 339 Climbing Indianapolis Center
Tue 05:00:11 PM 37.2950 -86.0086 166° South 253 291 17,000  Level Indianapolis Center
Tue 05:01:13 PM 37.2058 -85.9772 164° South 279 321 17,000  Level Indianapolis Center
Tue 05:02:15 PM 37.1283 -85.9781 180° South 277 319 17,000  Level Indianapolis Center
Tue 05:03:17 PM 37.0494 -85.9811 182° South 279 321 17,000  Level Indianapolis Center
Tue 05:04:19 PM 36.9714 -85.9867 183° South 278 320 17,000 244 Level Indianapolis Center
Tue 05:05:20 PM 36.8931 -85.9897 182° South 278 320 17,500 1,073 Climbing Indianapolis Center
Tue 05:06:22 PM 36.8261 -85.9900 180° South 245 282 19,200 1,306 Climbing Indianapolis Center
Tue 05:07:24 PM 36.7614 -85.9881 179° South 233 268 20,200 968 Climbing Indianapolis Center
Tue 05:08:26 PM 36.6917 -85.9847 178° South 245 282 21,200 968 Climbing Indianapolis Center
Tue 05:09:28 PM 36.6244 -85.9800 177° South 241 277 22,200 1,258 Climbing Indianapolis Center
Tue 05:10:30 PM 36.5464 -85.9739 176° South 239 275 23,800 1,169 Climbing Indianapolis Center
Tue 05:12:43 PM 36.4103 -85.9708 179° South 228 262 26,000 684 Climbing Memphis Center
Tue 05:13:43 PM 36.3414 -85.9694 179° South 240 276 26,000  Level Memphis Center
Tue 05:14:43 PM 36.2686 -85.9681 179° South 260 299 26,000  Level Memphis Center
Tue 05:15:43 PM 36.1892 -85.9672 180° South 276 318 26,000  Level Memphis Center
Tue 05:16:43 PM 36.1119 -85.9661 179° South 281 323 26,000  Level Memphis Center
Tue 05:17:43 PM 36.0433 -85.9647 179° South 281 323 26,000  Level Memphis Center
Tue 05:19:42 PM 35.8911 -85.9586 178° South 276 318 26,000  Level Atlanta Center
Tue 05:20:42 PM 35.8056 -85.9592 180° South 276 318 26,000  Level Atlanta Center
Tue 05:22:00 PM 35.7173 -85.9399 170° South  Level FlightAware Approximate
Tue 05:22:42 PM 35.6492 -85.9528 170° South 281 323 26,000  Level Atlanta Center
Tue 05:23:42 PM 35.5700 -85.9511 179° South 281 323 26,000  Level Atlanta Center
Tue 05:24:42 PM 35.4928 -85.9519 181° South 281 323 26,000  Level Atlanta Center
Tue 05:25:42 PM 35.4156 -85.9475 177° South 287 330 26,000  Level Atlanta Center
Tue 05:26:42 PM 35.3383 -85.9456 179° South 287 330 26,000  Level Atlanta Center
Tue 05:27:42 PM 35.2611 -85.9464 181° South 282 325 26,000  Level Atlanta Center
Tue 05:28:42 PM 35.1903 -85.9447 179° South 282 325 26,000  Level Atlanta Center
Tue 05:29:42 PM 35.1069 -85.9403 178° South 282 325 26,000  Level Atlanta Center
Tue 05:30:42 PM 35.0297 -85.9361 177° South 282 325 26,000  Level Atlanta Center
Tue 05:31:42 PM 34.9525 -85.9344 179° South 282 325 26,000  Level Atlanta Center
Tue 05:32:42 PM 34.8836 -85.9328 179° South 282 325 26,000  Level Atlanta Center
Tue 05:33:42 PM 34.8044 -85.9308 179° South 282 325 26,000  Level Atlanta Center
Tue 05:34:42 PM 34.7253 -85.9292 179° South 282 325 26,000  Level Atlanta Center
Tue 05:35:42 PM 34.6458 -85.9275 179° South 287 330 26,000  Level Atlanta Center
Tue 05:36:42 PM 34.5686 -85.9283 181° South 287 330 26,000  Level Atlanta Center
Tue 05:37:42 PM 34.4917 -85.9239 177° South 287 330 26,000  Level Atlanta Center
Tue 05:38:42 PM 34.4103 -85.9222 179° South 287 330 26,000  Level Atlanta Center
Tue 05:39:42 PM 34.3331 -85.9178 177° South 287 330 26,000  Level Atlanta Center
Tue 05:40:42 PM 34.2536 -85.9161 179° South 287 330 26,000  Level Atlanta Center
Tue 05:41:42 PM 34.1744 -85.9144 179° South 287 330 26,000  Level Atlanta Center
Tue 05:42:42 PM 34.0914 -85.8900 166° South 282 325 26,000  Level Atlanta Center
Tue 05:43:42 PM 34.0253 -85.8433 150° Southeast 270 311 26,000  Level Atlanta Center
Tue 05:44:42 PM 33.9653 -85.8022 150° Southeast 277 319 26,000  Level Atlanta Center
Tue 05:45:42 PM 33.8883 -85.7906 173° South 270 311 26,000  Level Atlanta Center
Tue 05:46:42 PM 33.8108 -85.7989 185° South 275 316 26,000 -400 Level Atlanta Center
Tue 05:47:42 PM 33.7275 -85.7997 180° South 290 334 25,200 -850 Descending Atlanta Center
Tue 05:48:42 PM 33.6314 -85.8028 182° South 311 358 24,300 400 Descending Atlanta Center
Tue 05:49:42 PM 33.5497 -85.8111 185° South 316 364 26,000 850 Climbing Atlanta Center
Tue 05:50:42 PM 33.4581 -85.8167 183° South 332 382 26,000  Level Atlanta Center
Tue 05:51:42 PM 33.3681 -85.8272 186° South 332 382 26,000  Level Atlanta Center
Tue 05:52:42 PM 33.2803 -85.8353 184° South 327 376 26,000  Level Atlanta Center
Tue 05:53:42 PM 33.1944 -85.8461 186° South 322 371 26,000  Level Atlanta Center
Tue 05:54:42 PM 33.1150 -85.8567 186° South 310 357 26,000  Level Atlanta Center
Tue 05:55:42 PM 33.0378 -85.8575 181° South 297 342 26,000  Level Atlanta Center
Tue 05:56:42 PM 32.9628 -85.8561 179° South 285 328 26,000  Level Atlanta Center
Tue 05:57:42 PM 32.8917 -85.8522 177° South 268 308 26,000  Level Atlanta Center
Tue 05:58:42 PM 32.8208 -85.8556 182° South 262 302 26,000  Level Atlanta Center
Tue 05:59:42 PM 32.7456 -85.8614 184° South 255 293 26,000  Level Atlanta Center
Tue 06:00:42 PM 32.6786 -85.8650 183° South 255 293 26,000  Level Atlanta Center
Tue 06:01:42 PM 32.6097 -85.8711 184° South 255 293 26,000  Level Atlanta Center
Tue 06:02:42 PM 32.5553 -85.8747 183° South 255 293 26,000  Level Atlanta Center
Tue 06:03:42 PM 32.5553 -85.8747 220° Southwest 255 293 26,000  Level Atlanta Center
Tue 06:05:42 PM 32.5553 -85.8747 220° Southwest 255 293 26,000  Level Atlanta Center
Tue 06:07:00 PM 32.5149 -85.8762 180° South  Level Estimated

Login

Don't have an account? Register now (free) for customized features, flight alerts, and more!